This is the latest recevied weather packets stored in our database for station/object F5TND-3. If no packets are shown the sender has not sent any weather packets the latest 10 day(s).
| Time | Temp. | Humidity | Pressure | Rain* | Wind** | Luminosity | Snow |
|---|---|---|---|---|---|---|---|
| 1787918155 | 25° C | 53% | 1012.6 hPa | - | - | - | - |
| 1787916955 | 23.33° C | 59% | 1012.5 hPa | - | - | - | - |
| 1787915734 | 23.89° C | 58% | 1012.4 hPa | - | - | - | - |
| 1787914534 | 23.89° C | 57% | 1012.1 hPa | - | - | - | - |
| 1787913334 | 23.33° C | 63% | 1011.8 hPa | - | - | - | - |
| 1787912134 | 21.11° C | 77% | 1011.8 hPa | - | - | - | - |
| 1787910934 | 22.22° C | 73% | 1011.4 hPa | - | - | - | - |
| 1787909734 | 19.44° C | 95% | 1011.1 hPa | - | - | - | - |
| 1787908548 | 21.11° C | 78% | 1010.6 hPa | - | - | - | - |
| 1787907334 | 20° C | 84% | 1010.5 hPa | - | - | - | - |
| 1787906134 | 19.44° C | 97% | 1010.4 hPa | - | - | - | - |
| 1787904933 | 20° C | 82% | 1010.2 hPa | - | - | - | - |
| 1787903733 | 23.89° C | 69% | 1010 hPa | - | - | - | - |
| 1787902534 | 22.78° C | 73% | 1010 hPa | - | - | - | - |
| 1787901333 | 17.78° C | 100% | 1009.6 hPa | - | - | - | - |
| 1787900133 | 16.11° C | 100% | 1009.4 hPa | - | - | - | - |
| 1787898933 | 15.56° C | 100% | 1009.5 hPa | - | - | - | - |
| 1787897733 | 17.22° C | 100% | 1009.3 hPa | - | - | - | - |
| 1787895333 | 14.44° C | 100% | 1009 hPa | - | - | - | - |
| 1787894370 | 14.44° C | 100% | 1008.9 hPa | - | - | - | - |
| 1787893170 | 15.56° C | 100% | 1008.7 hPa | - | - | - | - |
| 1787889570 | 15.56° C | 100% | 1009.2 hPa | - | - | - | - |
| 1787885970 | 15.56° C | 100% | 1008.3 hPa | - | - | - | - |
| 1787884771 | 15.56° C | 100% | 1007.9 hPa | - | - | - | - |
| 1787882370 | 16.67° C | 100% | 1007.6 hPa | - | - | - | - |
* Rain since midnight (hover to see other rain measurements)
** Current wind speed in m/s (hover to see current wind gust speed)